Time;durP1;ratioP1;P1;durP2;ratioP2;P2;SDS_P1;SDS_P2;PMS_P1;PMS_P2;Temp;Humidity;BMP_temperature;BMP_pressure;BME280_temperature;BME280_humidity;BME280_pressure;Samples;Min_cycle;Max_cycle;Signal;HPM_P1;HPM_P2
2022/02/22 00:02:18;;;;;;;;;;;;;;;;;;2205568;67;1221;-71
2022/02/22 00:04:52;;;;;;;;;;;;;;;;;;2206391;67;1239;-71
2022/02/22 00:07:28;;;;;;;;;;;;;;;;;;2206075;59;1253;-71
2022/02/22 00:10:01;;;;;;;;;;;;;;;;;;2207052;67;1076;-70
2022/02/22 00:12:35;;;;;;;;;;;;;;;;;;2206720;67;1125;-71
2022/02/22 00:15:09;;;;;;;;;;;;;;;;;;2206177;59;1666;-70
2022/02/22 00:17:42;;;;;;;;;;;;;;;;;;2206920;59;1952;-71
2022/02/22 00:20:17;;;;;;;;;;;;;;;;;;2207390;67;1249;-70
2022/02/22 00:22:53;;;;;;;;;;;;;;;;;;2207420;59;1286;-71
2022/02/22 00:25:26;;;;;;;;;;;;;;;;;;2206520;67;1324;-71
2022/02/22 00:28:00;;;;;;;;;;;;;;;;;;2207107;67;1124;-71
2022/02/22 00:30:34;;;;;;;;;;;;;;;;;;2206833;59;1392;-71
2022/02/22 00:33:08;;;;;;;;;;;;;;;;;;2206959;67;1090;-71
2022/02/22 00:35:42;;;;;;;;;;;;;;;;;;2206493;59;1899;-71
2022/02/22 00:38:18;;;;;;;;;;;;;;;;;;2204853;59;2660;-71
2022/02/22 00:40:51;;;;;;;;;;;;;;;;;;2206497;59;1196;-71
2022/02/22 00:43:25;;;;;;;;;;;;;;;;;;2206537;59;1443;-71
2022/02/22 00:46:02;;;;;;;;;;;;;;;;;;2207045;59;1121;-71
2022/02/22 00:48:36;;;;;;;;;;;;;;;;;;2207123;59;1494;-71
2022/02/22 00:51:09;;;;;;;;;;;;;;;;;;2206709;67;1096;-71
2022/02/22 00:53:49;;;;;;;;;;;;;;;;;;2206821;59;1829;-71
2022/02/22 00:56:22;;;;;;;;;;;;;;;;;;2206839;67;1235;-71
2022/02/22 00:58:56;;;;;;;;;;;;;;;;;;2206863;67;1982;-71
2022/02/22 01:01:29;;;;;;;;;;;;;;;;;;2206857;67;1298;-71
2022/02/22 01:04:03;;;;;;;;;;;;;;;;;;2206617;59;1242;-70
2022/02/22 01:06:36;;;;;;;;;;;;;;;;;;2207378;67;1352;-71
2022/02/22 01:09:13;;;;;;;;;;;;;;;;;;2206810;67;1120;-71
2022/02/22 01:11:47;;;;;;;;;;;;;;;;;;2206454;67;1310;-71
2022/02/22 01:14:20;;;;;;;;;;;;;;;;;;2207983;59;3659;-70
2022/02/22 01:16:53;;;;;;;;;;;;;;;;;;2205433;59;1510;-70
2022/02/22 01:19:26;;;;;;;;;;;;;;;;;;2206679;59;1933;-70
2022/02/22 01:21:59;;;;;;;;;;;;;;;;;;2207135;59;1447;-70
2022/02/22 01:24:35;;;;;;;;;;;;;;;;;;2207882;59;1282;-70
2022/02/22 01:27:08;;;;;;;;;;;;;;;;;;2209955;59;1753;-70
2022/02/22 01:29:41;;;;;;;;;;;;;;;;;;2210281;59;1305;-70
2022/02/22 01:32:15;;;;;;;;;;;;;;;;;;2210355;59;1340;-69
2022/02/22 01:34:48;;;;;;;;;;;;;;;;;;2209260;59;1864;-70
2022/02/22 01:37:21;;;;;;;;;;;;;;;;;;2210141;59;2431;-70
2022/02/22 01:39:57;;;;;;;;;;;;;;;;;;2209194;59;2686;-70
2022/02/22 01:42:30;;;;;;;;;;;;;;;;;;2209755;59;1204;-71
2022/02/22 01:45:03;;;;;;;;;;;;;;;;;;2210375;67;1202;-70
2022/02/22 01:47:36;;;;;;;;;;;;;;;;;;2210744;59;1499;-70
2022/02/22 01:50:10;;;;;;;;;;;;;;;;;;2210874;59;1472;-70
2022/02/22 01:52:43;;;;;;;;;;;;;;;;;;2210889;67;1236;-69
2022/02/22 01:55:21;;;;;;;;;;;;;;;;;;2209094;59;1723;-70
2022/02/22 01:57:54;;;;;;;;;;;;;;;;;;2210625;67;1930;-69
2022/02/22 02:00:28;;;;;;;;;;;;;;;;;;2210668;59;1958;-70
2022/02/22 02:03:01;;;;;;;;;;;;;;;;;;2210642;67;1114;-70
2022/02/22 02:05:35;;;;;;;;;;;;;;;;;;2209402;59;1875;-70
2022/02/22 02:08:08;;;;;;;;;;;;;;;;;;2209496;59;1818;-70
2022/02/22 02:10:44;;;;;;;;;;;;;;;;;;2210051;67;1048;-70
2022/02/22 02:13:17;;;;;;;;;;;;;;;;;;2209804;67;1156;-69
2022/02/22 02:15:50;;;;;;;;;;;;;;;;;;2209598;59;1785;-70
2022/02/22 02:18:23;;;;;;;;;;;;;;;;;;2209854;59;2010;-70
2022/02/22 02:20:56;;;;;;;;;;;;;;;;;;2210520;67;1073;-70
2022/02/22 02:23:32;;;;;;;;;;;;;;;;;;2209548;59;1456;-70
2022/02/22 02:26:05;;;;;;;;;;;;;;;;;;2209247;67;1180;-70
2022/02/22 02:28:38;;;;;;;;;;;;;;;;;;2209817;67;1143;-70
2022/02/22 02:31:11;;;;;;;;;;;;;;;;;;2209784;67;1096;-70
2022/02/22 02:33:44;;;;;;;;;;;;;;;;;;2208936;67;1174;-70
2022/02/22 02:36:18;;;;;;;;;;;;;;;;;;2209435;59;1877;-71
2022/02/22 02:38:53;;;;;;;;;;;;;;;;;;2209744;59;2661;-70
2022/02/22 02:41:27;;;;;;;;;;;;;;;;;;2209260;59;2351;-70
2022/02/22 02:44:03;;;;;;;;;;;;;;;;;;2209201;59;1239;-70
2022/02/22 02:46:36;;;;;;;;;;;;;;;;;;2210541;59;1491;-70
2022/02/22 02:49:10;;;;;;;;;;;;;;;;;;2209614;59;1444;-70
2022/02/22 02:51:44;;;;;;;;;;;;;;;;;;2209760;67;1215;-70
2022/02/22 02:54:20;;;;;;;;;;;;;;;;;;2208523;59;1873;-70
2022/02/22 02:56:53;;;;;;;;;;;;;;;;;;2209954;67;1094;-70
2022/02/22 02:59:26;;;;;;;;;;;;;;;;;;2210050;67;1992;-70
2022/02/22 03:01:59;;;;;;;;;;;;;;;;;;2209595;67;1248;-70
2022/02/22 03:04:32;;;;;;;;;;;;;;;;;;2209122;67;1887;-70
2022/02/22 03:07:06;;;;;;;;;;;;;;;;;;2209207;67;1073;-70
2022/02/22 03:09:42;;;;;;;;;;;;;;;;;;2210346;67;1177;-70
2022/02/22 03:12:15;;;;;;;;;;;;;;;;;;2210387;67;1155;-70
2022/02/22 03:14:49;;;;;;;;;;;;;;;;;;2209435;59;1801;-70
2022/02/22 03:17:22;;;;;;;;;;;;;;;;;;2209702;59;1442;-70
2022/02/22 03:19:55;;;;;;;;;;;;;;;;;;2209635;59;1996;-71
2022/02/22 03:22:28;;;;;;;;;;;;;;;;;;2210185;59;1352;-70
2022/02/22 03:25:04;;;;;;;;;;;;;;;;;;2209318;67;1171;-70
2022/02/22 03:27:37;;;;;;;;;;;;;;;;;;2210082;59;1153;-70
2022/02/22 03:30:11;;;;;;;;;;;;;;;;;;2210022;67;1151;-70
2022/02/22 03:32:44;;;;;;;;;;;;;;;;;;2209260;59;1649;-70
2022/02/22 03:35:17;;;;;;;;;;;;;;;;;;2209279;59;1671;-70
2022/02/22 03:37:51;;;;;;;;;;;;;;;;;;2210031;59;1154;-70
2022/02/22 03:40:27;;;;;;;;;;;;;;;;;;2208558;59;2475;-70
2022/02/22 03:43:00;;;;;;;;;;;;;;;;;;2209680;59;2438;-70
2022/02/22 03:45:33;;;;;;;;;;;;;;;;;;2210043;67;1179;-70
2022/02/22 03:48:07;;;;;;;;;;;;;;;;;;2211187;59;1500;-70
2022/02/22 03:50:40;;;;;;;;;;;;;;;;;;2210782;59;1686;-70
2022/02/22 03:53:14;;;;;;;;;;;;;;;;;;2210500;59;1157;-70
2022/02/22 03:55:50;;;;;;;;;;;;;;;;;;2210110;59;1775;-70
2022/02/22 03:58:23;;;;;;;;;;;;;;;;;;2210018;67;1774;-70
2022/02/22 04:00:56;;;;;;;;;;;;;;;;;;2210385;67;1935;-70
2022/02/22 04:03:29;;;;;;;;;;;;;;;;;;2210858;67;1167;-70
2022/02/22 04:06:03;;;;;;;;;;;;;;;;;;2211045;67;1200;-70
2022/02/22 04:08:36;;;;;;;;;;;;;;;;;;2210832;59;1266;-70
2022/02/22 04:11:12;;;;;;;;;;;;;;;;;;2210463;67;1124;-69
2022/02/22 04:13:45;;;;;;;;;;;;;;;;;;2210710;67;1176;-70
2022/02/22 04:16:18;;;;;;;;;;;;;;;;;;2210359;59;1914;-69
2022/02/22 04:18:51;;;;;;;;;;;;;;;;;;2210833;59;1996;-69
2022/02/22 04:21:24;;;;;;;;;;;;;;;;;;2210662;59;1303;-69
2022/02/22 04:23:57;;;;;;;;;;;;;;;;;;2210290;59;1515;-69
2022/02/22 04:26:33;;;;;;;;;;;;;;;;;;2210316;59;1583;-69
2022/02/22 04:29:06;;;;;;;;;;;;;;;;;;2210330;59;1178;-69
2022/02/22 04:31:40;;;;;;;;;;;;;;;;;;2210662;59;1222;-70
2022/02/22 04:34:13;;;;;;;;;;;;;;;;;;2209992;59;1713;-69
2022/02/22 04:36:46;;;;;;;;;;;;;;;;;;2210625;67;1332;-69
2022/02/22 04:39:19;;;;;;;;;;;;;;;;;;2210730;67;1990;-70
2022/02/22 04:41:55;;;;;;;;;;;;;;;;;;2209661;59;2813;-69
2022/02/22 04:44:28;;;;;;;;;;;;;;;;;;2209973;59;2510;-70
2022/02/22 04:47:01;;;;;;;;;;;;;;;;;;2210759;67;1567;-68
2022/02/22 04:49:34;;;;;;;;;;;;;;;;;;2211169;59;1686;-69
2022/02/22 04:52:09;;;;;;;;;;;;;;;;;;2211023;59;1108;-69
2022/02/22 04:54:42;;;;;;;;;;;;;;;;;;2209976;59;1675;-69
2022/02/22 04:57:18;;;;;;;;;;;;;;;;;;2210027;67;1374;-69
2022/02/22 04:59:51;;;;;;;;;;;;;;;;;;2210729;67;1978;-69
2022/02/22 05:02:25;;;;;;;;;;;;;;;;;;2211048;59;1482;-69
2022/02/22 05:04:58;;;;;;;;;;;;;;;;;;2210768;67;1227;-69
2022/02/22 05:07:31;;;;;;;;;;;;;;;;;;2211238;59;1231;-69
2022/02/22 05:10:04;;;;;;;;;;;;;;;;;;2210700;67;1326;-69
2022/02/22 05:12:40;;;;;;;;;;;;;;;;;;2210840;67;1146;-69
2022/02/22 05:15:13;;;;;;;;;;;;;;;;;;2209659;59;1820;-70
2022/02/22 05:17:46;;;;;;;;;;;;;;;;;;2210331;59;1449;-69
2022/02/22 05:20:20;;;;;;;;;;;;;;;;;;2210532;59;1934;-69
2022/02/22 05:22:53;;;;;;;;;;;;;;;;;;2210747;67;1434;-69
2022/02/22 05:25:26;;;;;;;;;;;;;;;;;;2210606;59;1131;-69
2022/02/22 05:28:02;;;;;;;;;;;;;;;;;;2210515;59;1193;-69
2022/02/22 05:30:35;;;;;;;;;;;;;;;;;;2210442;67;1144;-69
2022/02/22 05:33:08;;;;;;;;;;;;;;;;;;2210545;67;1298;-70
2022/02/22 05:35:42;;;;;;;;;;;;;;;;;;2210576;59;1694;-69
2022/02/22 05:38:16;;;;;;;;;;;;;;;;;;2210445;59;1199;-69
2022/02/22 05:40:50;;;;;;;;;;;;;;;;;;2210997;67;1956;-69
2022/02/22 05:43:26;;;;;;;;;;;;;;;;;;2208876;59;2913;-70
2022/02/22 05:45:59;;;;;;;;;;;;;;;;;;2209859;67;1259;-70
2022/02/22 05:48:32;;;;;;;;;;;;;;;;;;2210807;59;1364;-70
2022/02/22 05:51:05;;;;;;;;;;;;;;;;;;2210334;67;1130;-69
2022/02/22 05:53:39;;;;;;;;;;;;;;;;;;2209635;59;1250;-69
2022/02/22 05:56:12;;;;;;;;;;;;;;;;;;2209514;59;1811;-69
2022/02/22 05:58:48;;;;;;;;;;;;;;;;;;2210143;59;1724;-70
2022/02/22 06:01:21;;;;;;;;;;;;;;;;;;2208460;67;1972;-70
2022/02/22 06:03:54;;;;;;;;;;;;;;;;;;2209520;59;1883;-69
2022/02/22 06:06:28;;;;;;;;;;;;;;;;;;2208966;59;1526;-70
2022/02/22 06:09:01;;;;;;;;;;;;;;;;;;2209563;67;2211;-69
2022/02/22 06:11:34;;;;;;;;;;;;;;;;;;2209736;67;1764;-69
2022/02/22 06:14:10;;;;;;;;;;;;;;;;;;2209811;59;1649;-70
2022/02/22 06:16:43;;;;;;;;;;;;;;;;;;2209952;59;1702;-70
2022/02/22 06:19:16;;;;;;;;;;;;;;;;;;2210374;59;1204;-69
2022/02/22 06:21:49;;;;;;;;;;;;;;;;;;2209371;59;1831;-69
2022/02/22 06:24:23;;;;;;;;;;;;;;;;;;2209497;59;1237;-69
2022/02/22 06:26:56;;;;;;;;;;;;;;;;;;2210242;67;1107;-69
2022/02/22 06:29:32;;;;;;;;;;;;;;;;;;2210016;59;1538;-69
2022/02/22 06:32:06;;;;;;;;;;;;;;;;;;2208781;67;1400;-69
2022/02/22 06:34:40;;;;;;;;;;;;;;;;;;2209640;59;1706;-70
2022/02/22 06:37:13;;;;;;;;;;;;;;;;;;2208406;59;1594;-70
2022/02/22 06:39:46;;;;;;;;;;;;;;;;;;2209727;59;1996;-69
2022/02/22 06:42:19;;;;;;;;;;;;;;;;;;2209035;59;2604;-70
2022/02/22 06:44:55;;;;;;;;;;;;;;;;;;2207952;59;2765;-70
2022/02/22 06:47:28;;;;;;;;;;;;;;;;;;2208881;67;1501;-70
2022/02/22 06:50:01;;;;;;;;;;;;;;;;;;2210699;59;1369;-70
2022/02/22 06:52:34;;;;;;;;;;;;;;;;;;2210470;59;1254;-69
2022/02/22 06:55:08;;;;;;;;;;;;;;;;;;2209022;59;1535;-69
2022/02/22 06:57:42;;;;;;;;;;;;;;;;;;2209920;67;1035;-70
2022/02/22 07:00:18;;;;;;;;;;;;;;;;;;2210242;67;1996;-70
2022/02/22 07:02:52;;;;;;;;;;;;;;;;;;2210273;67;1131;-70
2022/02/22 07:05:25;;;;;;;;;;;;;;;;;;2209543;67;1301;-70
2022/02/22 07:07:58;;;;;;;;;;;;;;;;;;2209805;67;1151;-70
2022/02/22 07:10:32;;;;;;;;;;;;;;;;;;2210285;67;1430;-70
2022/02/22 07:13:05;;;;;;;;;;;;;;;;;;2209731;59;1184;-70
2022/02/22 07:15:41;;;;;;;;;;;;;;;;;;2207054;59;3797;-75
2022/02/22 07:18:14;;;;;;;;;;;;;;;;;;2204656;59;1315;-76
2022/02/22 07:20:47;;;;;;;;;;;;;;;;;;2206341;59;1935;-75
2022/02/22 07:23:21;;;;;;;;;;;;;;;;;;2206123;59;1328;-76
2022/02/22 07:25:54;;;;;;;;;;;;;;;;;;2206636;67;1192;-76
2022/02/22 07:28:27;;;;;;;;;;;;;;;;;;2202911;59;2463;-76
2022/02/22 07:31:06;;;;;;;;;;;;;;;;;;2206274;59;1718;-75
2022/02/22 07:33:39;;;;;;;;;;;;;;;;;;2206057;59;1818;-76
2022/02/22 07:36:13;;;;;;;;;;;;;;;;;;2204938;59;1802;-76
2022/02/22 07:38:47;;;;;;;;;;;;;;;;;;2205607;59;2013;-76
2022/02/22 07:41:22;;;;;;;;;;;;;;;;;;2202750;59;1939;-76
2022/02/22 07:43:55;;;;;;;;;;;;;;;;;;2205227;59;2638;-76
2022/02/22 07:46:31;;;;;;;;;;;;;;;;;;2205368;59;2237;-75
2022/02/22 07:49:06;;;;;;;;;;;;;;;;;;2206145;59;1992;-75
2022/02/22 07:51:39;;;;;;;;;;;;;;;;;;2205881;67;1151;-75
2022/02/22 07:54:12;;;;;;;;;;;;;;;;;;2206609;67;1195;-75
2022/02/22 07:56:45;;;;;;;;;;;;;;;;;;2206319;59;1699;-75
2022/02/22 07:59:19;;;;;;;;;;;;;;;;;;2206356;59;1695;-75
2022/02/22 08:01:55;;;;;;;;;;;;;;;;;;2206616;67;1934;-75
2022/02/22 08:04:28;;;;;;;;;;;;;;;;;;2204109;67;1219;-75
2022/02/22 08:07:01;;;;;;;;;;;;;;;;;;2206713;67;1133;-75
2022/02/22 08:09:34;;;;;;;;;;;;;;;;;;2206287;59;1204;-75
2022/02/22 08:12:08;;;;;;;;;;;;;;;;;;2206441;67;1231;-75
2022/02/22 08:14:41;;;;;;;;;;;;;;;;;;2206156;59;1517;-75
2022/02/22 08:17:17;;;;;;;;;;;;;;;;;;2205669;59;1580;-75
2022/02/22 08:19:50;;;;;;;;;;;;;;;;;;2206469;67;1092;-76
2022/02/22 08:22:24;;;;;;;;;;;;;;;;;;2204997;59;1989;-75
2022/02/22 08:24:57;;;;;;;;;;;;;;;;;;2202584;59;1692;-75
2022/02/22 08:27:30;;;;;;;;;;;;;;;;;;2206396;67;1172;-75
2022/02/22 08:30:03;;;;;;;;;;;;;;;;;;2205720;59;1804;-75
2022/02/22 08:32:40;;;;;;;;;;;;;;;;;;2203011;59;1879;-75
2022/02/22 08:35:13;;;;;;;;;;;;;;;;;;2206275;59;1631;-75
2022/02/22 08:37:50;;;;;;;;;;;;;;;;;;2206349;59;1682;-75
2022/02/22 08:40:23;;;;;;;;;;;;;;;;;;2205975;59;1987;-75
2022/02/22 08:42:56;;;;;;;;;;;;;;;;;;2206292;59;1867;-76
2022/02/22 08:45:30;;;;;;;;;;;;;;;;;;2205445;59;2396;-76
2022/02/22 08:48:06;;;;;;;;;;;;;;;;;;2205464;59;2226;-76
2022/02/22 08:50:40;;;;;;;;;;;;;;;;;;2206578;59;1425;-76
2022/02/22 08:53:14;;;;;;;;;;;;;;;;;;2206123;59;1683;-76
2022/02/22 08:55:47;;;;;;;;;;;;;;;;;;2206461;59;1732;-76
2022/02/22 08:58:20;;;;;;;;;;;;;;;;;;2206886;67;1258;-76
2022/02/22 09:00:54;;;;;;;;;;;;;;;;;;2206939;59;1930;-76
2022/02/22 09:03:30;;;;;;;;;;;;;;;;;;2206834;67;1144;-76
2022/02/22 09:06:03;;;;;;;;;;;;;;;;;;2206993;67;1251;-76
2022/02/22 09:08:36;;;;;;;;;;;;;;;;;;2206942;67;1142;-76
2022/02/22 09:11:09;;;;;;;;;;;;;;;;;;2206961;67;1228;-76
2022/02/22 09:13:44;;;;;;;;;;;;;;;;;;2206686;67;1117;-76
2022/02/22 09:16:18;;;;;;;;;;;;;;;;;;2205902;59;1621;-76
2022/02/22 09:18:54;;;;;;;;;;;;;;;;;;2206830;67;1192;-76
2022/02/22 09:21:29;;;;;;;;;;;;;;;;;;2207072;59;2021;-76
2022/02/22 09:24:02;;;;;;;;;;;;;;;;;;2207115;67;1102;-77
2022/02/22 09:26:35;;;;;;;;;;;;;;;;;;2207118;67;1257;-76
2022/02/22 09:29:08;;;;;;;;;;;;;;;;;;2206979;67;1179;-76
2022/02/22 09:31:41;;;;;;;;;;;;;;;;;;2206844;59;1733;-77
2022/02/22 09:34:17;;;;;;;;;;;;;;;;;;2205150;59;1916;-76
2022/02/22 09:36:51;;;;;;;;;;;;;;;;;;2205965;67;1155;-78
2022/02/22 09:39:24;;;;;;;;;;;;;;;;;;2206436;67;1125;-78
2022/02/22 09:41:57;;;;;;;;;;;;;;;;;;2206921;67;2012;-76
2022/02/22 09:44:30;;;;;;;;;;;;;;;;;;2206675;59;1265;-76
2022/02/22 09:47:04;;;;;;;;;;;;;;;;;;2205053;59;2568;-76
2022/02/22 09:49:40;;;;;;;;;;;;;;;;;;2205915;59;1929;-76
2022/02/22 09:52:13;;;;;;;;;;;;;;;;;;2206300;67;1262;-76
2022/02/22 09:54:46;;;;;;;;;;;;;;;;;;2206559;59;1695;-76
2022/02/22 09:57:20;;;;;;;;;;;;;;;;;;2206563;67;1204;-76
2022/02/22 09:59:53;;;;;;;;;;;;;;;;;;2207096;67;1169;-76
2022/02/22 10:02:36;;;;;;;;;;;;;;;;;;2206861;67;1929;-76
2022/02/22 10:05:16;;;;;;;;;;;;;;;;;;2206629;67;1232;-76
2022/02/22 10:07:51;;;;;;;;;;;;;;;;;;2204421;67;1252;-76
2022/02/22 10:10:35;;;;;;;;;;;;;;;;;;2206610;59;1275;-76
2022/02/22 10:13:09;;;;;;;;;;;;;;;;;;2206487;59;1274;-77
2022/02/22 10:15:44;;;;;;;;;;;;;;;;;;2205368;59;1675;-76
2022/02/22 10:18:18;;;;;;;;;;;;;;;;;;2205912;59;1660;-75
2022/02/22 10:20:54;;;;;;;;;;;;;;;;;;2205743;59;1938;-77
2022/02/22 10:23:28;;;;;;;;;;;;;;;;;;2205885;59;1392;-76
2022/02/22 10:26:02;;;;;;;;;;;;;;;;;;2206202;67;1223;-76
2022/02/22 10:28:39;;;;;;;;;;;;;;;;;;2206108;67;1185;-76
2022/02/22 10:31:12;;;;;;;;;;;;;;;;;;2206184;67;1090;-77
2022/02/22 10:33:46;;;;;;;;;;;;;;;;;;2206209;59;1178;-76
2022/02/22 10:36:23;;;;;;;;;;;;;;;;;;2206249;59;1696;-77
2022/02/22 10:38:56;;;;;;;;;;;;;;;;;;2204820;59;1595;-75
2022/02/22 10:41:30;;;;;;;;;;;;;;;;;;2206124;67;1945;-76
2022/02/22 10:44:03;;;;;;;;;;;;;;;;;;2206465;59;1267;-76
2022/02/22 10:46:40;;;;;;;;;;;;;;;;;;2205562;59;2697;-76
2022/02/22 10:49:14;;;;;;;;;;;;;;;;;;2205412;59;2400;-76
2022/02/22 10:51:52;;;;;;;;;;;;;;;;;;2206317;67;1180;-76
2022/02/22 10:54:26;;;;;;;;;;;;;;;;;;2205231;59;1791;-76
2022/02/22 10:57:00;;;;;;;;;;;;;;;;;;2206146;59;2071;-76
2022/02/22 10:59:34;;;;;;;;;;;;;;;;;;2206293;59;1330;-75
2022/02/22 11:02:07;;;;;;;;;;;;;;;;;;2205980;67;1932;-75
2022/02/22 11:04:40;;;;;;;;;;;;;;;;;;2202089;59;1911;-76
2022/02/22 11:07:23;;;;;;;;;;;;;;;;;;2206904;67;1094;-76
2022/02/22 11:09:56;;;;;;;;;;;;;;;;;;2206621;59;1130;-75
2022/02/22 11:12:33;;;;;;;;;;;;;;;;;;2206720;59;1218;-75
2022/02/22 11:15:07;;;;;;;;;;;;;;;;;;2206302;59;1600;-76
2022/02/22 11:17:51;;;;;;;;;;;;;;;;;;2202936;59;1824;-76
2022/02/22 11:20:30;;;;;;;;;;;;;;;;;;2206683;59;1150;-75
2022/02/22 11:23:09;;;;;;;;;;;;;;;;;;2206620;59;1946;-76
2022/02/22 11:25:44;;;;;;;;;;;;;;;;;;2206224;67;1273;-77
2022/02/22 11:28:17;;;;;;;;;;;;;;;;;;2206141;67;1114;-76
2022/02/22 11:30:51;;;;;;;;;;;;;;;;;;2206426;59;1418;-76
2022/02/22 11:33:24;;;;;;;;;;;;;;;;;;2206339;67;1185;-77
2022/02/22 11:35:58;;;;;;;;;;;;;;;;;;2205888;59;1794;-76
2022/02/22 11:38:40;;;;;;;;;;;;;;;;;;2205596;59;1780;-75
2022/02/22 11:41:18;;;;;;;;;;;;;;;;;;2206076;67;1941;-76
2022/02/22 11:43:58;;;;;;;;;;;;;;;;;;2206728;59;1217;-76
2022/02/22 11:46:40;;;;;;;;;;;;;;;;;;2206660;59;1550;-76
2022/02/22 11:49:23;;;;;;;;;;;;;;;;;;2205141;59;2777;-76
2022/02/22 11:51:57;;;;;;;;;;;;;;;;;;2205956;67;1297;-76
2022/02/22 11:54:33;;;;;;;;;;;;;;;;;;2205736;59;1668;-75
2022/02/22 11:57:08;;;;;;;;;;;;;;;;;;2205959;67;1138;-76
2022/02/22 11:59:48;;;;;;;;;;;;;;;;;;2205368;59;1681;-76
2022/02/22 12:02:28;;;;;;;;;;;;;;;;;;2206208;67;1937;-75
2022/02/22 12:05:02;;;;;;;;;;;;;;;;;;2206977;67;1218;-76
2022/02/22 12:07:36;;;;;;;;;;;;;;;;;;2207618;67;1239;-75
2022/02/22 12:10:12;;;;;;;;;;;;;;;;;;2206037;59;1987;-76
2022/02/22 12:12:45;;;;;;;;;;;;;;;;;;2206788;67;1171;-76
2022/02/22 12:15:19;;;;;;;;;;;;;;;;;;2205297;59;1541;-75
2022/02/22 12:17:52;;;;;;;;;;;;;;;;;;2206620;59;1411;-75
2022/02/22 12:20:28;;;;;;;;;;;;;;;;;;2206604;67;1223;-76
2022/02/22 12:23:01;;;;;;;;;;;;;;;;;;2207501;59;1992;-76
2022/02/22 12:25:37;;;;;;;;;;;;;;;;;;2206217;59;1548;-76
2022/02/22 12:28:10;;;;;;;;;;;;;;;;;;2207039;67;1129;-76
2022/02/22 12:30:45;;;;;;;;;;;;;;;;;;2207327;67;1100;-76
2022/02/22 12:33:18;;;;;;;;;;;;;;;;;;2206919;59;1331;-76
2022/02/22 12:35:51;;;;;;;;;;;;;;;;;;2205856;59;1559;-75
2022/02/22 12:38:26;;;;;;;;;;;;;;;;;;2206422;59;1566;-75
2022/02/22 12:41:03;;;;;;;;;;;;;;;;;;2207250;59;1662;-76
2022/02/22 12:43:45;;;;;;;;;;;;;;;;;;2206086;59;1944;-76
2022/02/22 12:46:19;;;;;;;;;;;;;;;;;;2206625;59;1510;-76
2022/02/22 12:48:53;;;;;;;;;;;;;;;;;;2205484;59;2597;-75
2022/02/22 12:51:27;;;;;;;;;;;;;;;;;;2205503;59;2259;-76
2022/02/22 12:54:02;;;;;;;;;;;;;;;;;;2206653;67;1205;-75
2022/02/22 12:56:42;;;;;;;;;;;;;;;;;;2206578;59;1724;-75
2022/02/22 12:59:16;;;;;;;;;;;;;;;;;;2206637;67;1299;-75
2022/02/22 13:01:50;;;;;;;;;;;;;;;;;;2206597;59;1932;-75
2022/02/22 13:04:25;;;;;;;;;;;;;;;;;;2206903;67;1250;-75
2022/02/22 13:06:59;;;;;;;;;;;;;;;;;;2204829;67;1192;-75
2022/02/22 13:09:32;;;;;;;;;;;;;;;;;;2206940;67;1178;-75
2022/02/22 13:12:09;;;;;;;;;;;;;;;;;;2206619;67;1409;-76
2022/02/22 13:14:45;;;;;;;;;;;;;;;;;;2209264;53;2310;-71
2022/02/22 13:17:18;;;;;;;;;;;;;;;;;;2210087;59;1271;-71
2022/02/22 13:19:55;;;;;;;;;;;;;;;;;;2212228;67;1230;-71
2022/02/22 13:22:29;;;;;;;;;;;;;;;;;;2213458;59;1941;-71
2022/02/22 13:25:03;;;;;;;;;;;;;;;;;;2213109;59;1250;-71
2022/02/22 13:27:39;;;;;;;;;;;;;;;;;;2212762;59;1258;-71
2022/02/22 13:30:14;;;;;;;;;;;;;;;;;;2212153;59;2282;-71
2022/02/22 13:32:51;;;;;;;;;;;;;;;;;;2212717;59;1172;-71
2022/02/22 13:35:25;;;;;;;;;;;;;;;;;;2211587;59;1740;-71
2022/02/22 13:37:58;;;;;;;;;;;;;;;;;;2210087;59;1810;-70
2022/02/22 13:40:34;;;;;;;;;;;;;;;;;;2210824;67;1310;-70
2022/02/22 13:43:13;;;;;;;;;;;;;;;;;;2211962;59;1978;-71
2022/02/22 13:45:47;;;;;;;;;;;;;;;;;;2211504;59;1618;-70
2022/02/22 13:48:20;;;;;;;;;;;;;;;;;;2211783;67;1546;-71
2022/02/22 13:51:03;;;;;;;;;;;;;;;;;;2210440;59;2574;-71
2022/02/22 13:53:37;;;;;;;;;;;;;;;;;;2211364;67;1131;-71
2022/02/22 13:56:10;;;;;;;;;;;;;;;;;;2211113;59;1730;-71
2022/02/22 13:58:47;;;;;;;;;;;;;;;;;;2212695;67;1443;-71
2022/02/22 14:01:22;;;;;;;;;;;;;;;;;;2211381;59;2240;-71
2022/02/22 14:03:55;;;;;;;;;;;;;;;;;;2210671;59;1935;-70
2022/02/22 14:06:31;;;;;;;;;;;;;;;;;;2210312;59;1384;-71
2022/02/22 14:09:05;;;;;;;;;;;;;;;;;;2210997;59;1991;-70
2022/02/22 14:11:39;;;;;;;;;;;;;;;;;;2210779;59;1447;-71
2022/02/22 14:14:16;;;;;;;;;;;;;;;;;;2210746;59;1276;-70
2022/02/22 14:16:49;;;;;;;;;;;;;;;;;;2210382;59;1829;-71
2022/02/22 14:19:23;;;;;;;;;;;;;;;;;;2212873;67;1235;-71
2022/02/22 14:21:58;;;;;;;;;;;;;;;;;;2211900;59;1709;-71
2022/02/22 14:24:31;;;;;;;;;;;;;;;;;;2208649;59;1992;-71
2022/02/22 14:27:05;;;;;;;;;;;;;;;;;;2210156;67;1615;-71
2022/02/22 14:29:45;;;;;;;;;;;;;;;;;;2209604;67;1251;-71
2022/02/22 14:32:18;;;;;;;;;;;;;;;;;;2209916;67;1282;-71
2022/02/22 14:34:52;;;;;;;;;;;;;;;;;;2209675;59;1833;-71
2022/02/22 14:37:26;;;;;;;;;;;;;;;;;;2211860;59;1218;-71
2022/02/22 14:39:59;;;;;;;;;;;;;;;;;;2211977;67;1074;-71
2022/02/22 14:42:33;;;;;;;;;;;;;;;;;;2210353;59;1926;-71
2022/02/22 14:45:09;;;;;;;;;;;;;;;;;;2210550;59;1797;-71
2022/02/22 14:47:43;;;;;;;;;;;;;;;;;;2209506;59;1448;-71
2022/02/22 14:50:16;;;;;;;;;;;;;;;;;;2209393;59;2590;-71
2022/02/22 14:52:49;;;;;;;;;;;;;;;;;;2208684;59;2666;-71
2022/02/22 14:55:22;;;;;;;;;;;;;;;;;;2209604;59;1744;-71
2022/02/22 14:57:56;;;;;;;;;;;;;;;;;;2211661;67;1082;-71
2022/02/22 15:00:32;;;;;;;;;;;;;;;;;;2210435;67;1213;-71
2022/02/22 15:03:07;;;;;;;;;;;;;;;;;;2211311;67;1948;-71
2022/02/22 15:05:42;;;;;;;;;;;;;;;;;;2211447;59;1392;-71
2022/02/22 15:08:15;;;;;;;;;;;;;;;;;;2210303;67;1080;-71
2022/02/22 15:10:49;;;;;;;;;;;;;;;;;;2209324;67;1095;-71
2022/02/22 15:13:22;;;;;;;;;;;;;;;;;;2209901;59;1698;-71
2022/02/22 15:15:59;;;;;;;;;;;;;;;;;;2209393;59;1546;-71
2022/02/22 15:18:32;;;;;;;;;;;;;;;;;;2209651;67;1115;-71
2022/02/22 15:21:06;;;;;;;;;;;;;;;;;;2209818;67;1120;-71
2022/02/22 15:23:39;;;;;;;;;;;;;;;;;;2209735;59;1977;-71
2022/02/22 15:26:13;;;;;;;;;;;;;;;;;;2209952;67;1304;-71
2022/02/22 15:28:46;;;;;;;;;;;;;;;;;;2210739;59;1508;-71
2022/02/22 15:31:22;;;;;;;;;;;;;;;;;;2209761;60;1284;-71
2022/02/22 15:33:55;;;;;;;;;;;;;;;;;;2210267;67;1084;-71
2022/02/22 15:36:29;;;;;;;;;;;;;;;;;;2210991;59;1825;-71
2022/02/22 15:39:02;;;;;;;;;;;;;;;;;;2212169;67;1131;-71
2022/02/22 15:41:37;;;;;;;;;;;;;;;;;;2212261;67;1135;-71
2022/02/22 15:44:10;;;;;;;;;;;;;;;;;;2211585;59;1933;-71
2022/02/22 15:46:46;;;;;;;;;;;;;;;;;;2211576;59;1569;-71
2022/02/22 15:49:19;;;;;;;;;;;;;;;;;;2212647;59;1574;-71
2022/02/22 15:51:53;;;;;;;;;;;;;;;;;;2212761;59;2552;-71
2022/02/22 15:54:26;;;;;;;;;;;;;;;;;;2211032;59;2685;-71
2022/02/22 15:57:00;;;;;;;;;;;;;;;;;;2212898;59;1978;-71
2022/02/22 15:59:34;;;;;;;;;;;;;;;;;;2211605;67;1137;-70
2022/02/22 16:02:10;;;;;;;;;;;;;;;;;;2211241;59;1847;-71
2022/02/22 16:04:43;;;;;;;;;;;;;;;;;;2211601;67;2089;-71
2022/02/22 16:07:17;;;;;;;;;;;;;;;;;;2212884;67;1249;-71
2022/02/22 16:09:50;;;;;;;;;;;;;;;;;;2212002;67;1156;-71
2022/02/22 16:12:24;;;;;;;;;;;;;;;;;;2210691;59;1895;-70
2022/02/22 16:14:57;;;;;;;;;;;;;;;;;;2211982;59;1519;-71
2022/02/22 16:17:34;;;;;;;;;;;;;;;;;;2212202;59;1419;-71
2022/02/22 16:20:08;;;;;;;;;;;;;;;;;;2211129;59;1526;-70
2022/02/22 16:22:46;;;;;;;;;;;;;;;;;;2209908;59;2069;-71
2022/02/22 16:25:21;;;;;;;;;;;;;;;;;;2210801;59;1924;-71
2022/02/22 16:27:55;;;;;;;;;;;;;;;;;;2211648;59;2383;-70
2022/02/22 16:30:29;;;;;;;;;;;;;;;;;;2212918;67;1100;-71
2022/02/22 16:33:08;;;;;;;;;;;;;;;;;;2211513;67;1142;-71
2022/02/22 16:35:48;;;;;;;;;;;;;;;;;;2211028;59;1676;-70
2022/02/22 16:38:22;;;;;;;;;;;;;;;;;;2211193;59;2186;-71
2022/02/22 16:40:56;;;;;;;;;;;;;;;;;;2209395;59;1853;-71
2022/02/22 16:43:31;;;;;;;;;;;;;;;;;;2210574;59;1932;-70
2022/02/22 16:46:08;;;;;;;;;;;;;;;;;;2210519;59;1789;-71
2022/02/22 16:48:44;;;;;;;;;;;;;;;;;;2211352;59;1752;-70
2022/02/22 16:51:17;;;;;;;;;;;;;;;;;;2211664;67;1268;-70
2022/02/22 16:53:51;;;;;;;;;;;;;;;;;;2210132;59;2513;-71
2022/02/22 16:56:33;;;;;;;;;;;;;;;;;;2212346;59;2552;-70
2022/02/22 16:59:06;;;;;;;;;;;;;;;;;;2210675;59;2468;-70
2022/02/22 17:01:40;;;;;;;;;;;;;;;;;;2210154;59;1261;-71
2022/02/22 17:04:18;;;;;;;;;;;;;;;;;;2210561;59;1988;-71
2022/02/22 17:07:10;;;;;;;;;;;;;;;;;;2211293;59;1829;-71
2022/02/22 17:09:44;;;;;;;;;;;;;;;;;;2211488;59;1915;-70
2022/02/22 17:12:18;;;;;;;;;;;;;;;;;;2211322;59;1400;-70
2022/02/22 17:14:52;;;;;;;;;;;;;;;;;;2210305;59;1790;-70
2022/02/22 17:17:25;;;;;;;;;;;;;;;;;;2211184;59;1675;-70
2022/02/22 17:20:01;;;;;;;;;;;;;;;;;;2211370;59;1630;-71
2022/02/22 17:22:34;;;;;;;;;;;;;;;;;;2210161;67;1365;-70
2022/02/22 17:25:10;;;;;;;;;;;;;;;;;;2212387;59;1924;-71
2022/02/22 17:27:43;;;;;;;;;;;;;;;;;;2211168;59;1232;-71
2022/02/22 17:30:17;;;;;;;;;;;;;;;;;;2211867;67;1066;-70
2022/02/22 17:32:50;;;;;;;;;;;;;;;;;;2212425;59;1262;-71
2022/02/22 17:35:26;;;;;;;;;;;;;;;;;;2212541;59;1923;-70
2022/02/22 17:37:59;;;;;;;;;;;;;;;;;;2211491;59;1073;-71
2022/02/22 17:40:33;;;;;;;;;;;;;;;;;;2212673;67;1266;-70
2022/02/22 17:43:06;;;;;;;;;;;;;;;;;;2212401;59;1216;-70
2022/02/22 17:45:41;;;;;;;;;;;;;;;;;;2211620;67;1939;-70
2022/02/22 17:48:14;;;;;;;;;;;;;;;;;;2210439;59;1522;-71
2022/02/22 17:50:51;;;;;;;;;;;;;;;;;;2212047;59;1690;-71
2022/02/22 17:53:24;;;;;;;;;;;;;;;;;;2212568;67;2693;-71